createdAt,value
2023-01-13T00:01:20.725Z,37.03
2023-01-13T00:06:28.499Z,38.40
2023-01-13T00:11:22.867Z,38.78
2023-01-13T00:16:18.842Z,38.33
2023-01-13T00:21:24.244Z,44.38
2023-01-13T00:26:19.914Z,35.53
2023-01-13T00:31:16.257Z,37.58
2023-01-13T00:36:11.673Z,37.15
2023-01-13T00:41:51.232Z,30.83
2023-01-13T00:46:44.831Z,28.38
2023-01-13T00:51:39.080Z,27.10
2023-01-13T01:01:33.683Z,34.72
2023-01-13T01:06:28.604Z,36.75
2023-01-13T01:11:28.399Z,35.88
2023-01-13T01:16:25.089Z,39.08
2023-01-13T01:21:19.653Z,31.20
2023-01-13T01:26:15.610Z,33.65
2023-01-13T01:31:19.063Z,35.58
2023-01-13T01:36:13.731Z,32.25
2023-01-13T01:41:08.747Z,31.92
2023-01-13T01:46:02.885Z,31.05
2023-01-13T01:50:56.979Z,27.00
2023-01-13T01:55:51.283Z,28.25
2023-01-13T02:00:45.535Z,28.73
2023-01-13T02:05:39.677Z,29.20
2023-01-13T02:10:33.787Z,35.00
2023-01-13T02:15:39.505Z,31.38
2023-01-13T02:21:10.037Z,32.00
2023-01-13T02:26:23.879Z,31.48
2023-01-13T02:31:37.038Z,33.63
2023-01-13T02:37:03.612Z,33.20
2023-01-13T02:42:31.540Z,26.17
2023-01-13T02:47:27.228Z,24.13
2023-01-13T02:52:32.230Z,23.30
2023-01-13T02:57:27.171Z,43.83
2023-01-13T03:02:20.824Z,21.15
2023-01-13T03:07:29.884Z,21.13
2023-01-13T03:12:29.032Z,20.42
2023-01-13T03:17:37.098Z,15.82
2023-01-13T03:22:32.325Z,18.13
2023-01-13T03:27:42.764Z,18.00
2023-01-13T03:32:35.779Z,19.48
2023-01-13T03:37:34.297Z,18.77
2023-01-13T03:42:30.088Z,16.05
2023-01-13T03:47:42.624Z,18.80
2023-01-13T03:52:45.610Z,20.73
2023-01-13T03:57:44.589Z,20.00
2023-01-13T04:02:48.959Z,21.35
2023-01-13T04:07:57.185Z,24.90
2023-01-13T04:13:02.391Z,24.02
2023-01-13T04:18:02.863Z,26.45
2023-01-13T04:22:57.116Z,29.50
2023-01-13T04:27:51.351Z,25.65
2023-01-13T04:32:45.363Z,27.70
2023-01-13T04:37:39.452Z,32.55
2023-01-13T04:42:33.557Z,29.48
2023-01-13T04:47:27.210Z,35.22
2023-01-13T04:57:14.317Z,28.83
2023-01-13T05:02:09.944Z,32.08
2023-01-13T05:07:09.432Z,28.92
2023-01-13T05:12:22.221Z,28.63
2023-01-13T05:17:21.504Z,35.50
2023-01-13T05:22:34.218Z,34.40
2023-01-13T05:27:27.896Z,33.53
2023-01-13T05:32:23.152Z,35.95
2023-01-13T05:37:17.057Z,38.75
2023-01-13T05:42:29.834Z,36.05
2023-01-13T05:47:24.073Z,32.67
2023-01-13T05:52:17.801Z,28.85
2023-01-13T05:57:11.408Z,28.80
2023-01-13T06:02:05.569Z,25.17
2023-01-13T06:06:59.529Z,26.10
2023-01-13T06:11:53.994Z,27.77
2023-01-13T06:16:47.339Z,29.88
2023-01-13T06:21:42.037Z,29.00
2023-01-13T06:26:39.664Z,30.00
2023-01-13T06:31:37.032Z,26.10
2023-01-13T06:36:37.841Z,32.08
2023-01-13T06:41:52.238Z,26.42
2023-01-13T06:46:46.353Z,28.98
2023-01-13T06:56:34.271Z,27.90
2023-01-13T07:01:27.432Z,30.92
2023-01-13T07:06:21.142Z,30.77
2023-01-13T07:11:14.718Z,30.92
2023-01-13T07:16:10.047Z,38.53
2023-01-13T07:21:09.516Z,33.13
2023-01-13T07:26:03.257Z,33.72
2023-01-13T07:30:57.453Z,38.20
2023-01-13T07:35:57.199Z,39.70
2023-01-13T07:40:51.087Z,28.58
2023-01-13T07:45:44.552Z,31.77
2023-01-13T07:50:38.342Z,31.58
2023-01-13T08:00:25.732Z,33.47
2023-01-13T08:05:19.355Z,34.55
2023-01-13T08:10:13.993Z,43.05
2023-01-13T08:15:10.277Z,41.95
2023-01-13T08:20:08.346Z,36.55
2023-01-13T08:25:02.280Z,32.78
2023-01-13T08:29:56.362Z,30.58
2023-01-13T08:34:50.733Z,30.77
2023-01-13T08:39:45.107Z,34.45
2023-01-13T08:44:39.111Z,33.90
2023-01-13T08:54:25.974Z,37.60
2023-01-13T08:59:21.103Z,31.30
2023-01-13T09:04:20.296Z,37.80
2023-01-13T09:09:14.635Z,36.58
2023-01-13T09:14:08.926Z,37.58
2023-01-13T09:19:02.710Z,42.80
2023-01-13T09:23:56.727Z,38.25
2023-01-13T09:34:02.090Z,36.30
2023-01-13T09:38:55.163Z,38.72
2023-01-13T09:43:54.544Z,41.13
2023-01-13T09:48:54.572Z,42.28
2023-01-13T09:53:59.757Z,43.85
2023-01-13T09:58:53.247Z,43.10
2023-01-13T10:08:41.114Z,48.53
2023-01-13T10:13:34.457Z,48.53
2023-01-13T10:18:33.520Z,58.78
2023-01-13T10:23:39.048Z,83.70
2023-01-13T10:28:32.864Z,134.32
2023-01-13T10:33:29.337Z,98.20
2023-01-13T10:38:52.086Z,86.95
2023-01-13T10:44:07.249Z,78.40
2023-01-13T10:49:02.491Z,44.63
2023-01-13T10:53:59.513Z,48.35
2023-01-13T10:59:12.198Z,42.55
2023-01-13T11:04:32.166Z,47.40
2023-01-13T11:09:26.712Z,37.15
2023-01-13T11:14:40.121Z,57.88
2023-01-13T11:19:37.850Z,102.88
2023-01-13T11:24:43.285Z,54.83
2023-01-13T11:29:58.677Z,49.72
2023-01-13T11:34:57.240Z,65.75
2023-01-13T11:40:00.653Z,59.90
2023-01-13T11:45:08.231Z,82.20
2023-01-13T11:50:02.342Z,56.97
2023-01-13T11:54:55.008Z,51.67
2023-01-13T12:00:18.424Z,52.27
2023-01-13T12:05:30.007Z,48.35
2023-01-13T12:10:41.186Z,45.00
2023-01-13T12:15:47.959Z,44.63
2023-01-13T12:21:02.364Z,46.78
2023-01-13T12:25:59.561Z,54.28
2023-01-13T12:31:00.689Z,46.85
2023-01-13T12:36:05.600Z,43.22
2023-01-13T12:42:01.391Z,45.05
2023-01-13T12:46:56.973Z,41.90
2023-01-13T12:51:53.104Z,44.72
2023-01-13T12:56:47.358Z,41.85
2023-01-13T13:01:41.172Z,43.58
2023-01-13T13:06:37.432Z,47.05
2023-01-13T13:11:58.126Z,46.08
2023-01-13T13:16:53.529Z,46.60
2023-01-13T13:22:14.168Z,48.70
2023-01-13T13:27:26.523Z,47.80
2023-01-13T13:32:18.993Z,46.85
2023-01-13T13:37:59.948Z,62.42
2023-01-13T13:43:15.243Z,50.65
2023-01-13T13:48:33.872Z,46.13
2023-01-13T13:53:30.117Z,41.78
2023-01-13T13:58:24.844Z,50.08
2023-01-13T14:03:30.106Z,49.95
2023-01-13T14:08:24.603Z,49.45
2023-01-13T14:13:26.831Z,45.85
2023-01-13T14:18:22.195Z,55.15
2023-01-13T14:23:20.463Z,49.15
2023-01-13T14:28:13.967Z,45.30
2023-01-13T14:33:26.771Z,47.70
2023-01-13T14:38:39.367Z,54.25
2023-01-13T14:43:48.630Z,47.22
2023-01-13T14:48:43.759Z,44.28
2023-01-13T14:53:47.544Z,48.60
2023-01-13T14:58:41.785Z,42.17
2023-01-13T15:03:42.229Z,45.33
2023-01-13T15:08:36.690Z,44.17
2023-01-13T15:13:29.630Z,48.88
2023-01-13T15:18:23.533Z,49.05
2023-01-13T15:23:17.890Z,49.88
2023-01-13T15:28:23.368Z,53.85
2023-01-13T15:33:17.701Z,59.72
2023-01-13T15:38:16.247Z,46.88
2023-01-13T15:43:39.445Z,54.45
2023-01-13T15:48:35.678Z,55.63
2023-01-13T15:53:30.324Z,58.90
2023-01-13T15:58:28.285Z,57.05
2023-01-13T16:03:22.007Z,53.60
2023-01-13T16:08:21.801Z,52.75
2023-01-13T16:13:15.721Z,52.10
2023-01-13T16:18:15.719Z,58.63
2023-01-13T16:23:09.189Z,54.72
2023-01-13T16:28:02.906Z,55.35
2023-01-13T16:32:57.227Z,58.25
2023-01-13T16:37:51.019Z,59.92
2023-01-13T16:42:45.499Z,66.30
2023-01-13T16:47:40.669Z,67.95
2023-01-13T16:52:34.632Z,65.65
2023-01-13T16:57:27.892Z,71.43
2023-01-13T17:02:22.769Z,81.47
2023-01-13T17:07:17.633Z,104.88
2023-01-13T17:12:12.378Z,88.05
2023-01-13T17:17:05.806Z,71.53
2023-01-13T17:22:00.073Z,75.70
2023-01-13T17:26:55.022Z,68.38
2023-01-13T17:31:48.915Z,80.63
2023-01-13T17:36:45.648Z,72.22
2023-01-13T17:41:39.623Z,78.22
2023-01-13T17:46:33.184Z,77.25
2023-01-13T17:51:27.279Z,76.80
2023-01-13T17:56:21.526Z,74.93
2023-01-13T18:01:17.686Z,73.88
2023-01-13T18:06:22.915Z,80.57
2023-01-13T18:11:21.071Z,101.93
2023-01-13T18:16:17.592Z,109.53
2023-01-13T18:21:44.497Z,93.65
2023-01-13T18:26:56.088Z,76.75
2023-01-13T18:31:49.670Z,86.85
2023-01-13T18:41:55.480Z,92.25
2023-01-13T18:46:48.507Z,83.03
2023-01-13T18:51:42.627Z,71.30
2023-01-13T18:56:36.325Z,85.00
2023-01-13T19:01:30.459Z,82.85
2023-01-13T19:06:26.586Z,68.57
2023-01-13T19:11:30.855Z,72.35
2023-01-13T19:16:24.121Z,69.13
2023-01-13T19:21:18.138Z,77.68
2023-01-13T19:26:12.925Z,76.28
2023-01-13T19:31:08.932Z,73.78
2023-01-13T19:36:04.076Z,85.20
2023-01-13T19:41:03.208Z,74.50
2023-01-13T19:45:57.638Z,79.45
2023-01-13T19:50:53.679Z,75.90
2023-01-13T19:55:49.771Z,96.78
2023-01-13T20:00:48.638Z,93.97
2023-01-13T20:05:43.692Z,97.00
2023-01-13T20:10:38.707Z,96.68
2023-01-13T20:15:32.953Z,96.93
2023-01-13T20:20:27.892Z,108.57
2023-01-13T20:25:22.318Z,91.25
2023-01-13T20:30:16.598Z,83.13
2023-01-13T20:35:11.434Z,83.80
2023-01-13T20:40:10.383Z,83.90
2023-01-13T20:45:04.334Z,84.25
2023-01-13T20:49:59.773Z,78.97
2023-01-13T20:54:53.474Z,82.35
2023-01-13T20:59:47.857Z,85.22
2023-01-13T21:04:42.059Z,93.65
2023-01-13T21:09:40.320Z,90.70
2023-01-13T21:14:51.472Z,86.50
2023-01-13T21:19:46.087Z,85.22
2023-01-13T21:24:40.620Z,80.88
2023-01-13T21:29:38.260Z,78.07
2023-01-13T21:34:35.611Z,78.93
2023-01-13T21:39:29.727Z,77.88
2023-01-13T21:44:41.885Z,72.97
2023-01-13T21:49:34.678Z,66.68
2023-01-13T21:54:29.133Z,72.45
2023-01-13T21:59:23.400Z,65.47
2023-01-13T22:04:22.860Z,68.47
2023-01-13T22:09:17.720Z,57.88
2023-01-13T22:14:14.204Z,77.00
2023-01-13T22:19:09.388Z,59.70
2023-01-13T22:24:03.481Z,66.57
2023-01-13T22:28:56.769Z,88.35
2023-01-13T22:33:53.741Z,79.88
2023-01-13T22:38:47.583Z,71.65
2023-01-13T22:43:40.564Z,75.28
2023-01-13T22:48:35.052Z,62.92
2023-01-13T22:53:28.495Z,64.85
2023-01-13T22:58:22.403Z,59.92
2023-01-13T23:03:16.621Z,54.28
2023-01-13T23:08:11.433Z,54.63
2023-01-13T23:13:05.182Z,55.58
2023-01-13T23:17:59.101Z,51.85
2023-01-13T23:27:46.669Z,54.20
2023-01-13T23:32:40.146Z,64.75
2023-01-13T23:37:35.123Z,59.88
2023-01-13T23:42:29.429Z,59.72
2023-01-13T23:47:23.497Z,57.08
2023-01-13T23:52:18.921Z,57.13
2023-01-13T23:57:12.863Z,50.38
